Time;durP1;ratioP1;P1;durP2;ratioP2;P2;SDS_P1;SDS_P2;PMS_P1;PMS_P2;Temp;Humidity;BMP_temperature;BMP_pressure;BME280_temperature;BME280_humidity;BME280_pressure;Samples;Min_cycle;Max_cycle;Signal;HPM_P1;HPM_P2
2021/07/30 00:01:59;;;;;;;9.35;7.22;;;;;;;22.13;90.89;97576.53;5051894;28;20072;-78
2021/07/30 00:04:25;;;;;;;9.55;7.03;;;;;;;22.08;91.20;97582.47;5052947;28;20028;-78
2021/07/30 00:06:50;;;;;;;7.95;6.60;;;;;;;22.06;91.42;97584.81;5052763;28;20039;-79
2021/07/30 00:09:15;;;;;;;10.85;7.70;;;;;;;22.02;91.90;97583.94;5051802;28;20033;-78
2021/07/30 00:11:41;;;;;;;9.93;7.60;;;;;;;21.77;93.22;97577.25;5051138;28;20021;-79
2021/07/30 00:14:07;;;;;;;7.72;6.75;;;;;;;21.72;94.00;97580.34;5052920;28;20033;-79
2021/07/30 00:16:33;;;;;;;11.45;7.50;;;;;;;21.87;92.91;97580.16;5051863;28;20091;-78
2021/07/30 00:18:59;;;;;;;11.23;7.70;;;;;;;21.93;91.57;97580.66;5051534;28;20059;-80
2021/07/30 00:21:24;;;;;;;11.73;7.53;;;;;;;21.79;92.79;97572.91;5051391;28;20025;-80
2021/07/30 00:23:50;;;;;;;10.32;6.40;;;;;;;21.69;92.54;97559.63;5051623;28;20025;-79
2021/07/30 00:26:15;;;;;;;9.00;6.63;;;;;;;21.58;92.79;97569.03;5051398;28;20504;-79
2021/07/30 00:28:40;;;;;;;9.45;6.68;;;;;;;21.59;92.82;97578.97;5051270;28;20032;-79
2021/07/30 00:31:06;;;;;;;10.05;7.57;;;;;;;21.65;92.94;97571.91;5050992;28;20259;-79
2021/07/30 00:33:32;;;;;;;10.00;7.50;;;;;;;21.60;92.67;97572.25;5052462;28;20052;-79
2021/07/30 00:35:57;;;;;;;13.00;8.93;;;;;;;21.50;93.26;97572.88;5052495;28;20013;-78
2021/07/30 00:38:23;;;;;;;11.65;7.88;;;;;;;21.45;93.96;97573.22;5052255;28;20060;-78
2021/07/30 00:40:48;;;;;;;12.10;8.73;;;;;;;21.29;95.01;97576.97;5052415;28;20021;-79
2021/07/30 00:43:14;;;;;;;14.30;8.98;;;;;;;21.23;95.62;97578.47;5050927;28;20017;-78
2021/07/30 00:45:39;;;;;;;10.75;7.78;;;;;;;21.20;95.71;97573.66;5052195;28;20071;-79
2021/07/30 00:48:06;;;;;;;13.40;8.93;;;;;;;21.32;95.02;97572.63;5051029;28;20040;-78
2021/07/30 00:50:32;;;;;;;10.70;8.02;;;;;;;21.38;94.69;97581.47;5052208;28;20033;-78
2021/07/30 00:52:57;;;;;;;11.55;8.38;;;;;;;21.42;94.56;97593.47;5050842;28;20450;-79
2021/07/30 00:55:23;;;;;;;11.05;8.43;;;;;;;21.43;94.11;97586.69;5050529;28;20028;-78
2021/07/30 00:57:48;;;;;;;10.73;7.70;;;;;;;21.24;95.45;97587.59;5050240;28;20497;-78
2021/07/30 01:00:14;;;;;;;9.10;7.85;;;;;;;21.48;94.33;97587.19;5050810;28;20370;-79
2021/07/30 01:02:40;;;;;;;10.63;8.18;;;;;;;21.28;95.79;97583.72;5050177;28;20039;-79
2021/07/30 01:05:06;;;;;;;7.90;7.10;;;;;;;21.36;95.51;97588.19;5051653;28;20374;-78
2021/07/30 01:07:32;;;;;;;15.30;7.82;;;;;;;21.39;94.53;97591.41;5051999;28;20060;-79
2021/07/30 01:09:59;;;;;;;10.15;8.55;;;;;;;21.11;96.22;97575.88;5052294;28;20025;-79
2021/07/30 01:12:24;;;;;;;10.43;7.95;;;;;;;21.02;97.42;97578.09;5050844;28;20037;-78
2021/07/30 01:14:50;;;;;;;11.10;7.20;;;;;;;21.31;96.22;97590.50;5050125;28;20439;-78
2021/07/30 01:17:15;;;;;;;10.57;7.40;;;;;;;21.08;97.37;97586.94;5050406;28;20053;-79
2021/07/30 01:19:41;;;;;;;12.63;7.47;;;;;;;21.23;96.83;97597.94;5050402;28;20029;-78
2021/07/30 01:22:21;;;;;;;13.50;7.32;;;;;;;21.29;96.34;97590.09;5049287;28;20036;-80
2021/07/30 01:24:47;;;;;;;10.38;6.65;;;;;;;21.12;96.81;97593.38;5050297;28;20029;-80
2021/07/30 01:27:12;;;;;;;12.18;7.43;;;;;;;21.08;97.51;97590.50;5049818;28;20406;-78
2021/07/30 01:29:37;;;;;;;8.63;7.25;;;;;;;21.05;97.27;97580.13;5051388;28;20040;-81
2021/07/30 01:32:05;;;;;;;8.20;6.70;;;;;;;21.26;95.58;97586.06;5050380;28;20051;-79
2021/07/30 01:34:30;;;;;;;11.23;8.93;;;;;;;21.03;96.34;97579.69;5050490;28;20033;-79
2021/07/30 01:36:56;;;;;;;8.93;7.57;;;;;;;20.93;96.59;97565.63;5049797;28;20066;-78
2021/07/30 01:39:21;;;;;;;10.80;8.23;;;;;;;20.79;98.40;97566.19;5050326;28;20111;-78
2021/07/30 01:41:46;;;;;;;8.70;7.25;;;;;;;21.06;96.65;97575.38;5050481;28;20499;-81
2021/07/30 01:44:14;;;;;;;10.85;7.97;;;;;;;20.90;97.50;97588.59;5049936;28;20036;-78
2021/07/30 01:46:40;;;;;;;8.05;7.25;;;;;;;20.79;97.50;97567.00;5050031;28;20039;-78
2021/07/30 01:49:05;;;;;;;14.43;7.88;;;;;;;20.84;97.97;97585.34;5051289;28;20021;-78
2021/07/30 01:51:30;;;;;;;13.57;7.22;;;;;;;20.89;97.26;97571.13;5050962;28;20040;-78
2021/07/30 01:53:56;;;;;;;13.13;6.97;;;;;;;20.78;97.98;97575.69;5050973;28;20112;-80
2021/07/30 01:56:21;;;;;;;12.75;7.68;;;;;;;20.79;97.63;97571.75;5049491;28;20155;-79
2021/07/30 01:58:47;;;;;;;7.82;7.03;;;;;;;20.84;97.58;97575.03;5050887;28;20029;-79
2021/07/30 02:01:12;;;;;;;10.45;8.10;;;;;;;20.88;97.62;97580.66;5050818;28;20021;-78
2021/07/30 02:03:37;;;;;;;10.45;8.18;;;;;;;20.79;97.50;97582.88;5050802;28;20370;-78
2021/07/30 02:06:09;;;;;;;9.32;8.05;;;;;;;20.58;98.93;97577.72;5050868;28;20039;-78
2021/07/30 02:08:36;;;;;;;10.50;8.27;;;;;;;20.49;100.00;97584.69;5050938;28;20541;-79
2021/07/30 02:11:09;;;;;;;9.23;7.95;;;;;;;20.54;100.00;97587.19;5049096;28;20037;-78
2021/07/30 02:16:19;;;;;;;13.85;8.00;;;;;;;20.68;98.51;97587.44;5051252;28;20076;-77
2021/07/30 02:18:44;;;;;;;9.65;8.23;;;;;;;20.57;99.02;97590.03;5050755;28;20080;-79
2021/07/30 02:21:10;;;;;;;10.73;8.75;;;;;;;20.72;98.14;97599.44;5050357;28;20224;-78
2021/07/30 02:23:35;;;;;;;10.82;7.70;;;;;;;20.61;98.08;97593.66;5049317;28;20033;-78
2021/07/30 02:26:01;;;;;;;11.98;8.13;;;;;;;20.56;97.71;97590.41;5050686;28;20064;-79
2021/07/30 02:28:26;;;;;;;13.32;8.10;;;;;;;20.43;97.40;97570.31;5050377;28;20072;-78
2021/07/30 02:30:52;;;;;;;15.30;8.00;;;;;;;20.41;98.22;97591.31;5049160;28;20574;-82
2021/07/30 02:33:17;;;;;;;14.30;7.45;;;;;;;20.43;98.01;97594.50;5050634;28;20056;-81
2021/07/30 02:35:43;;;;;;;8.90;7.60;;;;;;;20.28;98.69;97596.22;5049109;28;20037;-80
2021/07/30 02:38:08;;;;;;;11.77;7.68;;;;;;;20.13;99.57;97595.13;5050460;28;20021;-80
2021/07/30 02:40:34;;;;;;;14.48;8.02;;;;;;;20.00;100.00;97582.56;5049055;28;20021;-79
2021/07/30 02:43:00;;;;;;;15.68;8.43;;;;;;;20.00;100.00;97587.28;5050522;28;20067;-80
2021/07/30 02:45:26;;;;;;;10.43;7.93;;;;;;;20.06;100.00;97594.97;5049969;28;20037;-79
2021/07/30 02:47:51;;;;;;;12.07;8.75;;;;;;;19.92;100.00;97580.81;5050326;28;20033;-79
2021/07/30 02:50:17;;;;;;;10.60;7.15;;;;;;;19.91;100.00;97572.84;5049003;28;20033;-79
2021/07/30 02:52:42;;;;;;;10.10;7.57;;;;;;;19.91;100.00;97581.16;5050268;28;20083;-80
2021/07/30 02:55:08;;;;;;;14.82;8.15;;;;;;;19.78;100.00;97577.72;5050036;28;20370;-80
2021/07/30 02:57:33;;;;;;;10.10;8.80;;;;;;;19.83;100.00;97590.53;5051426;28;20033;-80
2021/07/30 02:59:58;;;;;;;16.13;9.27;;;;;;;20.06;100.00;97583.06;5050668;28;20111;-82
2021/07/30 03:02:24;;;;;;;10.75;8.43;;;;;;;20.15;99.92;97586.41;5050509;28;20074;-79
2021/07/30 03:04:49;;;;;;;16.65;8.50;;;;;;;20.18;99.26;97585.66;5050431;28;20115;-79
2021/07/30 03:07:14;;;;;;;11.32;7.90;;;;;;;20.17;99.25;97590.41;5048415;28;20073;-78
2021/07/30 03:09:40;;;;;;;8.63;7.07;;;;;;;19.99;100.00;97580.94;5048566;28;20024;-78
2021/07/30 03:12:06;;;;;;;13.65;8.15;;;;;;;19.95;100.00;97591.19;5048998;28;20040;-79
2021/07/30 03:14:31;;;;;;;12.13;8.68;;;;;;;19.82;100.00;97600.81;5048319;28;20063;-79
2021/07/30 03:16:57;;;;;;;11.13;7.85;;;;;;;19.84;100.00;97587.38;5050051;28;20136;-80
2021/07/30 03:19:22;;;;;;;13.23;8.32;;;;;;;19.89;100.00;97586.28;5050110;28;20037;-79
2021/07/30 03:21:47;;;;;;;11.10;8.25;;;;;;;19.93;100.00;97593.50;5049980;28;20028;-79
2021/07/30 03:24:13;;;;;;;9.75;7.63;;;;;;;19.88;100.00;97591.03;5049810;28;20393;-79
2021/07/30 03:26:38;;;;;;;9.05;8.15;;;;;;;19.84;100.00;97594.88;5048673;28;20033;-78
2021/07/30 03:29:05;;;;;;;9.90;7.85;;;;;;;19.90;100.00;97602.56;5048785;28;20075;-78
2021/07/30 03:31:30;;;;;;;13.77;8.43;;;;;;;19.78;100.00;97595.19;5048832;28;20501;-79
2021/07/30 03:33:56;;;;;;;13.38;8.32;;;;;;;19.75;100.00;97589.56;5050093;28;20039;-79
2021/07/30 03:36:21;;;;;;;11.50;8.68;;;;;;;19.78;100.00;97591.59;5049925;28;20025;-79
2021/07/30 03:38:47;;;;;;;13.60;8.40;;;;;;;19.77;100.00;97595.53;5049848;28;20038;-80
2021/07/30 03:41:12;;;;;;;11.98;8.60;;;;;;;20.03;100.00;97601.25;5048691;28;20108;-79
2021/07/30 03:43:38;;;;;;;12.63;8.88;;;;;;;19.84;100.00;97598.47;5048899;28;20021;-80
2021/07/30 03:46:03;;;;;;;11.32;8.32;;;;;;;19.81;100.00;97601.97;5050770;28;20106;-79
2021/07/30 03:48:29;;;;;;;9.23;7.38;;;;;;;19.86;100.00;97601.69;5051762;28;20029;-81
2021/07/30 03:50:54;;;;;;;10.73;8.98;;;;;;;19.75;100.00;97595.09;5053622;28;20033;-81
2021/07/30 03:53:19;;;;;;;13.32;8.52;;;;;;;19.59;100.00;97580.47;5052201;28;20445;-79
2021/07/30 03:55:45;;;;;;;12.70;8.70;;;;;;;19.72;100.00;97595.84;5053364;28;20025;-80
2021/07/30 03:58:10;;;;;;;10.07;7.85;;;;;;;19.81;100.00;97604.75;5052133;28;20382;-79
2021/07/30 04:00:38;;;;;;;10.73;8.35;;;;;;;19.61;100.00;97595.59;5053272;28;20444;-79
2021/07/30 04:03:03;;;;;;;12.32;7.70;;;;;;;19.77;100.00;97614.97;5051854;28;20067;-81
2021/07/30 04:05:30;;;;;;;10.98;7.70;;;;;;;19.99;100.00;97613.44;5051895;28;20056;-78
2021/07/30 04:07:56;;;;;;;9.05;7.43;;;;;;;20.13;98.75;97608.19;5053256;28;20024;-80
2021/07/30 04:10:22;;;;;;;9.45;7.88;;;;;;;20.03;98.74;97609.59;5051911;28;20044;-79
2021/07/30 04:12:47;;;;;;;11.38;9.13;;;;;;;19.87;99.54;97603.31;5051810;28;20064;-80
2021/07/30 04:15:12;;;;;;;11.68;8.20;;;;;;;19.79;99.74;97601.56;5052674;28;20029;-78
2021/07/30 04:17:38;;;;;;;11.10;7.47;;;;;;;19.88;99.70;97604.91;5051310;28;20013;-79
2021/07/30 04:20:04;;;;;;;15.13;8.25;;;;;;;19.96;99.26;97615.00;5051684;28;20036;-78
2021/07/30 04:22:30;;;;;;;14.70;8.52;;;;;;;20.04;98.44;97607.63;5052779;28;20104;-78
2021/07/30 04:24:55;;;;;;;21.13;8.68;;;;;;;20.16;97.64;97616.63;5052524;28;20448;-78
2021/07/30 04:27:20;;;;;;;13.10;8.90;;;;;;;20.22;97.09;97608.78;5052717;28;20079;-78
2021/07/30 04:29:46;;;;;;;10.90;8.55;;;;;;;20.15;97.33;97603.88;5052558;28;20049;-78
2021/07/30 04:32:12;;;;;;;12.93;8.15;;;;;;;20.39;95.43;97615.91;5051317;28;20029;-78
2021/07/30 04:34:38;;;;;;;8.57;7.57;;;;;;;20.46;95.61;97610.44;5052457;28;20083;-78
2021/07/30 04:37:04;;;;;;;7.97;7.18;;;;;;;20.62;94.16;97620.31;5052295;28;20017;-79
2021/07/30 04:39:30;;;;;;;13.57;8.77;;;;;;;20.74;92.90;97619.31;5052523;28;20026;-79
2021/07/30 04:41:55;;;;;;;13.52;6.78;;;;;;;20.89;92.30;97623.16;5052425;28;20021;-79
2021/07/30 04:44:21;;;;;;;15.45;8.13;;;;;;;20.95;91.52;97625.28;5050767;28;20674;-78
2021/07/30 04:46:46;;;;;;;9.52;7.05;;;;;;;21.36;88.20;97629.16;5051152;28;20401;-81
2021/07/30 04:49:12;;;;;;;13.70;7.72;;;;;;;21.52;86.59;97624.22;5050679;28;20032;-79
2021/07/30 04:51:37;;;;;;;10.80;6.95;;;;;;;21.62;85.05;97619.97;5050718;28;20443;-79
2021/07/30 04:54:03;;;;;;;10.25;7.45;;;;;;;21.74;84.33;97631.69;5052256;28;20120;-81
2021/07/30 04:56:28;;;;;;;8.88;6.47;;;;;;;21.50;85.12;97628.56;5050886;28;20021;-81
2021/07/30 04:58:55;;;;;;;9.65;6.45;;;;;;;21.39;85.57;97628.41;5051036;28;20489;-80
2021/07/30 05:01:30;;;;;;;;;;;;;;;;;;;;;
2021/07/30 05:04:57;;;;;;;11.02;7.63;;;;;;;21.08;87.18;97615.53;5052536;28;20028;-78
2021/07/30 05:07:47;;;;;;;13.48;7.57;;;;;;;21.10;86.74;97604.09;4956060;28;20058;-80
2021/07/30 05:10:13;;;;;;;10.57;8.38;;;;;;;21.34;86.77;97618.38;4990728;28;20030;-80
2021/07/30 05:12:38;;;;;;;11.02;7.15;;;;;;;21.56;85.67;97627.88;5047500;28;20032;-80
2021/07/30 05:15:05;;;;;;;14.38;8.48;;;;;;;21.57;85.44;97621.13;5050526;28;20026;-79
2021/07/30 05:17:30;;;;;;;14.10;8.10;;;;;;;21.74;83.92;97631.69;5050045;28;20025;-79
2021/07/30 05:19:56;;;;;;;17.05;8.55;;;;;;;21.99;83.48;97629.28;5051611;28;20086;-79
2021/07/30 05:22:21;;;;;;;11.30;8.82;;;;;;;22.04;82.62;97628.97;5050281;28;20091;-79
2021/07/30 05:24:47;;;;;;;14.60;9.02;;;;;;;22.12;82.41;97625.09;5051430;28;20017;-79
2021/07/30 05:27:12;;;;;;;15.90;9.45;;;;;;;22.13;82.33;97623.91;5049772;28;20032;-78
2021/07/30 05:29:37;;;;;;;13.70;8.35;;;;;;;22.19;81.90;97627.16;5051354;28;20478;-79
2021/07/30 05:32:03;;;;;;;10.82;8.93;;;;;;;22.30;81.32;97631.66;5050177;28;20025;-79
2021/07/30 05:34:30;;;;;;;11.98;8.00;;;;;;;22.50;80.51;97629.50;5050124;28;20441;-81
2021/07/30 05:36:55;;;;;;;15.88;8.73;;;;;;;22.75;79.54;97632.59;5050096;28;20067;-80
2021/07/30 05:39:21;;;;;;;13.18;7.68;;;;;;;22.55;80.39;97622.81;5051621;28;20055;-80
2021/07/30 05:41:46;;;;;;;9.52;7.95;;;;;;;22.81;79.27;97628.28;5051523;28;20499;-80
2021/07/30 05:44:12;;;;;;;10.82;8.57;;;;;;;22.75;79.31;97629.81;5051160;28;20082;-79
2021/07/30 05:46:38;;;;;;;15.88;8.43;;;;;;;23.05;78.21;97630.53;5050141;28;20033;-79
2021/07/30 05:49:04;;;;;;;13.50;8.60;;;;;;;23.06;77.89;97631.28;5049883;28;20052;-79
2021/07/30 05:51:29;;;;;;;9.50;8.40;;;;;;;23.00;78.40;97628.06;5050901;28;20021;-79
2021/07/30 05:53:55;;;;;;;13.48;8.25;;;;;;;23.31;76.86;97643.47;5051265;28;20638;-79
2021/07/30 05:56:21;;;;;;;12.32;8.23;;;;;;;23.34;77.02;97626.75;5050832;28;20029;-80
2021/07/30 05:58:46;;;;;;;10.30;8.18;;;;;;;23.18;77.33;97617.84;5051162;28;20055;-80
2021/07/30 06:01:13;;;;;;;11.52;8.70;;;;;;;23.44;76.39;97631.66;5049790;28;20439;-79
2021/07/30 06:03:39;;;;;;;14.60;8.00;;;;;;;23.34;77.18;97628.75;5050736;28;20050;-79
2021/07/30 06:06:04;;;;;;;10.80;9.13;;;;;;;23.28;77.16;97627.50;5049366;28;20127;-80
2021/07/30 06:08:29;;;;;;;15.68;9.80;;;;;;;23.45;76.36;97633.28;5050806;28;20098;-79
2021/07/30 06:10:55;;;;;;;14.23;9.25;;;;;;;23.72;75.64;97639.44;5050853;28;20057;-79
2021/07/30 06:13:20;;;;;;;11.48;8.20;;;;;;;23.69;74.89;97639.41;5050970;28;20040;-79
2021/07/30 06:15:46;;;;;;;14.23;9.18;;;;;;;24.09;73.60;97636.44;5049771;28;20079;-79
2021/07/30 06:18:11;;;;;;;16.42;9.20;;;;;;;23.66;74.98;97643.78;5049452;28;20067;-79
2021/07/30 06:20:36;;;;;;;9.75;6.95;;;;;;;24.09;73.85;97633.66;5050968;28;20024;-78
2021/07/30 06:23:02;;;;;;;16.17;9.50;;;;;;;24.52;71.71;97635.47;5051560;28;20025;-78
2021/07/30 06:25:28;;;;;;;11.77;8.30;;;;;;;24.53;71.41;97642.66;5050908;28;20064;-78
2021/07/30 06:27:53;;;;;;;13.90;9.45;;;;;;;24.44;72.15;97633.84;5051069;28;20480;-78
2021/07/30 06:30:27;;;;;;;15.18;9.70;;;;;;;24.10;73.43;97626.88;5046201;28;20048;-78
2021/07/30 06:32:56;;;;;;;14.82;8.63;;;;;;;24.13;72.74;97631.72;5049180;28;20033;-79
2021/07/30 06:35:21;;;;;;;12.57;7.28;;;;;;;23.93;73.50;97642.34;5049427;28;20036;-78
2021/07/30 06:37:47;;;;;;;13.65;7.97;;;;;;;23.68;75.06;97637.81;5050748;28;20029;-78
2021/07/30 06:40:13;;;;;;;16.50;8.70;;;;;;;24.08;73.88;97645.22;5048817;28;20020;-78
2021/07/30 06:42:39;;;;;;;13.15;7.38;;;;;;;24.48;71.95;97637.44;5049550;28;20052;-78
2021/07/30 06:45:06;;;;;;;13.90;8.10;;;;;;;24.77;71.10;97638.34;5049226;28;20056;-77
2021/07/30 06:47:36;;;;;;;12.25;9.05;;;;;;;25.08;69.77;97638.81;5050464;28;20048;-77
2021/07/30 06:50:05;;;;;;;11.65;7.85;;;;;;;24.85;70.40;97641.97;5049450;28;20100;-77
2021/07/30 06:52:31;;;;;;;15.88;8.25;;;;;;;25.17;68.69;97640.03;5052101;28;20100;-79
2021/07/30 06:54:57;;;;;;;24.80;8.82;;;;;;;24.70;70.81;97645.91;5049519;28;20072;-77
2021/07/30 06:57:22;;;;;;;13.20;8.13;;;;;;;24.55;71.53;97633.06;5050364;28;20120;-78
2021/07/30 06:59:48;;;;;;;16.73;8.57;;;;;;;24.51;71.58;97647.03;5049015;28;20033;-78
2021/07/30 07:02:14;;;;;;;15.70;8.60;;;;;;;24.67;71.31;97621.50;5049070;28;20033;-79
2021/07/30 07:04:40;;;;;;;12.57;8.10;;;;;;;25.26;69.00;97636.81;5049707;28;20087;-78
2021/07/30 07:07:05;;;;;;;32.30;11.07;;;;;;;25.41;68.20;97622.41;5052694;28;20473;-78
2021/07/30 07:09:31;;;;;;;14.02;7.70;;;;;;;25.71;66.88;97626.81;5051712;28;20040;-79
2021/07/30 07:11:56;;;;;;;16.15;8.32;;;;;;;25.23;68.51;97624.41;5050582;28;20496;-78
2021/07/30 07:14:22;;;;;;;11.38;7.90;;;;;;;25.25;68.22;97622.00;5052323;28;20037;-78
2021/07/30 07:16:47;;;;;;;12.63;8.82;;;;;;;25.61;66.67;97622.03;5033424;28;20040;-78
2021/07/30 07:19:12;;;;;;;12.32;9.30;;;;;;;25.66;66.42;97618.81;5048820;28;20056;-77
2021/07/30 07:21:39;;;;;;;9.40;6.75;;;;;;;25.93;65.53;97615.16;5053166;28;20029;-78
2021/07/30 07:24:05;;;;;;;11.85;7.85;;;;;;;26.20;63.84;97612.69;5054523;28;20063;-77
2021/07/30 07:26:31;;;;;;;9.23;7.20;;;;;;;26.19;63.35;97613.13;5054000;28;20428;-78
2021/07/30 07:28:56;;;;;;;12.27;7.47;;;;;;;26.41;63.33;97609.78;5052521;28;20029;-78
2021/07/30 07:31:22;;;;;;;9.35;6.78;;;;;;;26.62;61.73;97603.28;5053678;28;20136;-76
2021/07/30 07:33:47;;;;;;;13.98;8.52;;;;;;;26.51;62.26;97596.91;5052915;28;20056;-78
2021/07/30 07:36:13;;;;;;;14.43;6.70;;;;;;;26.92;61.48;97602.72;5054199;28;20057;-77
2021/07/30 07:38:38;;;;;;;11.63;6.75;;;;;;;27.12;60.46;97613.00;5052961;28;20033;-78
2021/07/30 07:41:03;;;;;;;14.48;7.90;;;;;;;26.54;61.35;97599.69;5052358;28;20029;-78
2021/07/30 07:43:29;;;;;;;10.43;6.95;;;;;;;26.58;61.69;97608.09;5052380;28;20033;-78
2021/07/30 07:45:54;;;;;;;9.18;6.50;;;;;;;26.60;61.40;97595.25;5052689;28;20021;-77
2021/07/30 07:48:20;;;;;;;8.75;6.10;;;;;;;26.71;60.51;97600.00;5052163;28;20025;-79
2021/07/30 07:50:45;;;;;;;9.85;6.97;;;;;;;27.03;60.09;97592.22;5052426;28;20025;-78
2021/07/30 07:53:12;;;;;;;9.05;6.30;;;;;;;27.25;59.26;97590.84;5054047;28;20362;-77
2021/07/30 07:55:38;;;;;;;8.10;6.15;;;;;;;27.30;58.71;97598.81;5052114;28;20432;-78
2021/07/30 07:58:03;;;;;;;9.65;6.72;;;;;;;27.59;57.62;97591.75;5053436;28;20043;-78
2021/07/30 08:00:29;;;;;;;10.82;6.07;;;;;;;27.66;57.45;97586.03;5052215;28;20119;-79
2021/07/30 08:02:54;;;;;;;7.07;5.68;;;;;;;28.27;55.18;97591.00;5053678;28;20101;-79
2021/07/30 08:05:20;;;;;;;24.38;8.80;;;;;;;28.86;52.94;97591.44;5051748;28;20454;-78
2021/07/30 08:07:45;;;;;;;15.02;6.25;;;;;;;29.43;51.21;97589.31;5052126;28;20393;-78
2021/07/30 08:10:10;;;;;;;16.38;8.43;;;;;;;30.01;49.32;97584.28;5052826;28;20116;-78
2021/07/30 08:12:36;;;;;;;8.05;6.18;;;;;;;30.74;47.45;97579.09;5051719;28;20059;-78
2021/07/30 08:15:03;;;;;;;11.95;6.72;;;;;;;30.78;47.72;97590.31;5051532;28;20044;-77
2021/07/30 08:17:28;;;;;;;11.63;7.03;;;;;;;31.90;45.20;97585.91;5051113;28;20029;-77
2021/07/30 08:19:54;;;;;;;6.18;5.18;;;;;;;32.49;43.53;97591.13;5051635;28;20032;-74
2021/07/30 08:22:19;;;;;;;7.78;6.47;;;;;;;33.51;41.67;97601.31;5053175;28;20033;-76
2021/07/30 08:24:44;;;;;;;8.73;6.13;;;;;;;32.94;41.86;97585.34;5052856;28;20021;-81
2021/07/30 08:27:10;;;;;;;8.93;6.10;;;;;;;33.58;40.88;97584.03;5052585;28;20362;-76
2021/07/30 08:29:36;;;;;;;7.40;5.53;;;;;;;34.47;38.89;97593.06;5051269;28;20078;-76
2021/07/30 08:32:02;;;;;;;10.57;5.63;;;;;;;35.66;37.15;97594.44;5052217;28;20558;-76
2021/07/30 08:34:27;;;;;;;10.43;4.90;;;;;;;35.41;36.91;97589.75;5051325;28;20029;-76
2021/07/30 08:36:53;;;;;;;13.80;5.90;;;;;;;34.94;37.85;97587.19;5052918;28;20036;-76
2021/07/30 08:39:18;;;;;;;10.40;5.18;;;;;;;35.26;37.59;97591.63;5051364;28;20075;-76
2021/07/30 08:41:48;;;;;;;9.10;5.47;;;;;;;34.68;38.66;97585.81;5056261;28;20098;-75
2021/07/30 08:44:14;;;;;;;8.27;5.57;;;;;;;35.10;38.23;97584.13;5051605;28;20048;-76
2021/07/30 08:46:41;;;;;;;6.85;5.43;;;;;;;35.97;36.43;97590.19;5051728;28;20553;-75
2021/07/30 08:49:08;;;;;;;7.53;6.13;;;;;;;34.73;38.61;97594.53;5052627;28;20036;-75
2021/07/30 08:51:38;;;;;;;8.90;6.50;;;;;;;34.10;39.32;97592.00;5051582;28;20036;-76
2021/07/30 08:54:04;;;;;;;14.85;7.20;;;;;;;34.96;38.22;97602.53;5052522;28;20393;-75
2021/07/30 08:56:29;;;;;;;11.45;6.97;;;;;;;34.64;38.75;97600.16;5052336;28;20052;-75
2021/07/30 08:58:55;;;;;;;8.13;5.97;;;;;;;34.46;39.25;97602.81;5052493;28;20420;-77
2021/07/30 09:01:20;;;;;;;9.40;5.68;;;;;;;35.88;37.39;97610.13;5051290;28;20021;-76
2021/07/30 09:03:46;;;;;;;9.82;6.82;;;;;;;35.66;37.34;97603.78;5051440;28;20021;-78
2021/07/30 09:06:20;;;;;;;9.60;6.28;;;;;;;34.95;38.15;97606.66;5050981;28;20029;-77
2021/07/30 09:09:09;;;;;;;11.23;5.90;;;;;;;35.11;38.25;97602.00;5052659;28;20491;-78
2021/07/30 09:11:37;;;;;;;5.85;5.28;;;;;;;36.15;36.26;97605.75;5052384;28;20043;-79
2021/07/30 09:14:05;;;;;;;12.10;5.35;;;;;;;36.30;35.88;97595.31;5050983;28;20031;-77
2021/07/30 09:16:45;;;;;;;9.98;6.10;;;;;;;35.16;37.70;97598.53;5050868;28;20039;-76
2021/07/30 09:19:11;;;;;;;15.32;6.07;;;;;;;34.05;40.25;97584.03;5052283;28;20057;-78
2021/07/30 09:21:36;;;;;;;9.23;6.68;;;;;;;33.95;40.15;97581.59;5052067;28;20029;-78
2021/07/30 09:24:19;;;;;;;9.85;6.38;;;;;;;33.88;40.60;97576.94;5050694;28;20021;-77
2021/07/30 09:26:55;;;;;;;8.43;5.38;;;;;;;34.78;39.03;97574.00;5050709;28;20029;-77
2021/07/30 09:29:25;;;;;;;10.43;5.63;;;;;;;36.47;35.69;97583.09;5050524;28;20033;-77
2021/07/30 09:31:54;;;;;;;7.30;5.30;;;;;;;35.42;37.31;97574.28;5050672;28;20052;-77
2021/07/30 09:34:28;;;;;;;7.60;5.10;;;;;;;35.86;36.32;97569.16;5051923;28;20036;-77
2021/07/30 09:36:56;;;;;;;6.80;4.45;;;;;;;37.34;34.14;97575.72;5050394;28;20052;-78
2021/07/30 09:39:37;;;;;;;12.02;6.40;;;;;;;37.18;33.96;97585.47;5051934;28;20043;-77
2021/07/30 09:42:10;;;;;;;7.85;5.50;;;;;;;34.61;38.23;97566.97;5051571;28;20024;-78
2021/07/30 09:44:51;;;;;;;13.00;5.53;;;;;;;35.29;36.91;97557.34;5051183;28;20510;-78
2021/07/30 09:47:29;;;;;;;9.80;5.22;;;;;;;35.96;36.11;97554.44;5051640;28;20040;-77
2021/07/30 09:49:57;;;;;;;5.60;4.97;;;;;;;36.89;34.06;97560.34;5051744;28;20071;-76
2021/07/30 09:52:32;;;;;;;7.00;5.13;;;;;;;36.05;35.52;97544.31;5049934;28;20025;-77
2021/07/30 09:55:02;;;;;;;7.25;5.35;;;;;;;35.58;36.40;97556.94;5049674;28;20490;-78
2021/07/30 09:57:29;;;;;;;7.18;6.13;;;;;;;34.68;37.94;97552.47;5051251;28;20016;-76
2021/07/30 10:00:14;;;;;;;8.23;6.60;;;;;;;34.78;37.68;97528.50;5051588;28;20120;-77
2021/07/30 10:02:43;;;;;;;;;;;;;;;34.62;38.24;97536.47;5050454;28;20032;-77
2021/07/30 10:05:10;;;;;;;7.70;5.22;;;;;;;35.22;36.93;97522.69;5049857;28;19958;-77
2021/07/30 10:07:38;;;;;;;8.65;5.65;;;;;;;37.09;34.12;97533.34;5051139;28;20028;-76
2021/07/30 10:12:31;;;;;;;8.23;5.22;;;;;;;37.95;32.70;97515.03;5051382;28;20094;-77
2021/07/30 10:15:01;;;;;;;5.55;4.82;;;;;;;37.53;32.87;97525.81;5049762;28;20504;-78
2021/07/30 10:17:32;;;;;;;7.97;5.63;;;;;;;37.65;32.26;97506.84;5049971;28;20071;-77
2021/07/30 10:20:01;;;;;;;7.03;5.50;;;;;;;37.19;32.78;97509.19;5051262;28;20036;-77
2021/07/30 10:22:35;;;;;;;8.07;5.13;;;;;;;35.84;35.00;97494.78;5049931;28;20106;-79
2021/07/30 10:25:01;;;;;;;7.85;5.18;;;;;;;35.72;35.09;97493.69;5050560;28;20491;-77
2021/07/30 10:27:28;;;;;;;7.10;4.97;;;;;;;36.82;34.41;97489.38;5050925;28;20037;-76
2021/07/30 10:30:03;;;;;;;8.95;5.55;;;;;;;36.55;34.20;97492.34;5049426;28;20053;-77
2021/07/30 10:32:47;;;;;;;9.93;4.60;;;;;;;36.57;33.47;97506.09;5053952;28;20035;-77
2021/07/30 10:35:15;;;;;;;8.18;5.00;;;;;;;37.91;31.87;97500.13;5049752;28;20071;-76
2021/07/30 10:37:42;;;;;;;7.53;4.82;;;;;;;38.29;31.05;97502.16;5049981;28;20025;-77
2021/07/30 10:40:16;;;;;;;5.55;4.45;;;;;;;35.91;32.99;97492.41;5049486;28;20374;-77
2021/07/30 10:43:03;;;;;;;16.35;5.47;;;;;;;34.65;35.00;97479.47;5049606;28;20107;-77
2021/07/30 10:45:33;;;;;;;6.75;5.30;;;;;;;35.24;34.64;97474.66;5048946;28;20037;-77
2021/07/30 10:48:14;;;;;;;6.90;5.28;;;;;;;34.51;35.52;97473.56;5049567;28;20040;-78
2021/07/30 10:50:47;;;;;;;5.72;4.88;;;;;;;34.19;36.49;97466.28;5050714;28;20040;-76
2021/07/30 10:53:31;;;;;;;9.52;4.68;;;;;;;34.26;36.57;97463.97;5050634;28;20025;-75
2021/07/30 10:56:19;;;;;;;5.55;5.03;;;;;;;33.80;37.96;97464.91;5054650;28;20048;-77
2021/07/30 10:58:45;;;;;;;6.63;4.90;;;;;;;32.87;39.07;97449.47;5016203;28;20099;-77
2021/07/30 11:01:15;;;;;;;6.20;4.50;;;;;;;32.64;39.68;97444.97;5053415;28;20036;-76
2021/07/30 11:03:52;;;;;;;5.72;5.15;;;;;;;33.60;38.69;97453.88;5053827;28;20029;-76
2021/07/30 11:06:27;;;;;;;6.95;5.90;;;;;;;33.12;39.18;97451.50;5054531;28;20477;-76
2021/07/30 11:11:39;;;;;;;6.78;4.75;;;;;;;33.54;37.25;97441.50;5054291;28;20123;-77
2021/07/30 11:14:14;;;;;;;7.72;5.00;;;;;;;33.48;37.38;97445.38;5054351;28;20032;-77
2021/07/30 11:16:40;;;;;;;7.88;4.82;;;;;;;33.12;36.64;97446.63;5054424;28;20104;-78
2021/07/30 11:19:06;;;;;;;11.95;4.85;;;;;;;33.13;37.10;97444.59;5054393;28;20163;-76
2021/07/30 11:21:32;;;;;;;9.30;4.88;;;;;;;33.24;36.79;97433.66;5052516;28;20108;-78
2021/07/30 11:23:58;;;;;;;7.88;4.93;;;;;;;33.27;37.35;97438.41;5054067;28;20036;-76
2021/07/30 11:26:23;;;;;;;9.95;6.03;;;;;;;33.47;36.69;97433.22;5054104;28;20029;-78
2021/07/30 11:28:57;;;;;;;7.28;4.72;;;;;;;34.05;35.47;97424.22;5052759;28;20518;-77
2021/07/30 11:31:23;;;;;;;6.97;5.28;;;;;;;33.84;35.25;97422.97;5053232;28;20447;-76
2021/07/30 11:33:49;;;;;;;4.85;4.20;;;;;;;33.76;35.33;97428.13;5053840;28;20124;-75
2021/07/30 11:36:15;;;;;;;8.40;4.80;;;;;;;33.42;35.22;97423.25;5053421;28;20031;-76
2021/07/30 11:38:51;;;;;;;5.18;4.45;;;;;;;33.09;36.21;97427.69;5052327;28;20029;-76